sensor_id;sensor_type;location;lat;lon;timestamp;P1;durP1;ratioP1;P2;durP2;ratioP2
41043;SDS011;51680;49.806;18.774;2023-11-18T00:01:47;11.50;;;7.40;;
41043;SDS011;51680;49.806;18.774;2023-11-18T00:04:49;12.68;;;7.63;;
41043;SDS011;51680;49.806;18.774;2023-11-18T00:07:51;13.00;;;7.47;;
41043;SDS011;51680;49.806;18.774;2023-11-18T00:10:54;15.18;;;8.15;;
41043;SDS011;51680;49.806;18.774;2023-11-18T00:13:57;14.82;;;7.97;;
41043;SDS011;51680;49.806;18.774;2023-11-18T00:17:00;14.52;;;7.38;;
41043;SDS011;51680;49.806;18.774;2023-11-18T00:20:03;14.13;;;7.55;;
41043;SDS011;51680;49.806;18.774;2023-11-18T00:23:09;13.40;;;7.72;;
41043;SDS011;51680;49.806;18.774;2023-11-18T00:26:12;12.93;;;7.43;;
41043;SDS011;51680;49.806;18.774;2023-11-18T00:29:18;12.00;;;7.30;;
41043;SDS011;51680;49.806;18.774;2023-11-18T00:32:21;15.13;;;7.55;;
41043;SDS011;51680;49.806;18.774;2023-11-18T00:35:23;12.45;;;7.30;;
41043;SDS011;51680;49.806;18.774;2023-11-18T00:38:25;12.45;;;7.18;;
41043;SDS011;51680;49.806;18.774;2023-11-18T00:41:46;13.20;;;8.88;;
41043;SDS011;51680;49.806;18.774;2023-11-18T00:44:49;15.23;;;8.40;;
41043;SDS011;51680;49.806;18.774;2023-11-18T00:47:51;12.07;;;7.72;;
41043;SDS011;51680;49.806;18.774;2023-11-18T00:50:54;14.20;;;6.85;;
41043;SDS011;51680;49.806;18.774;2023-11-18T00:53:57;11.97;;;6.60;;
41043;SDS011;51680;49.806;18.774;2023-11-18T00:57:01;10.35;;;7.00;;
41043;SDS011;51680;49.806;18.774;2023-11-18T01:00:05;13.98;;;7.05;;
41043;SDS011;51680;49.806;18.774;2023-11-18T01:03:09;13.43;;;7.03;;
41043;SDS011;51680;49.806;18.774;2023-11-18T01:06:11;9.90;;;5.78;;
41043;SDS011;51680;49.806;18.774;2023-11-18T01:09:15;10.20;;;5.60;;
41043;SDS011;51680;49.806;18.774;2023-11-18T01:12:17;10.13;;;5.30;;
41043;SDS011;51680;49.806;18.774;2023-11-18T01:15:22;9.90;;;4.97;;
41043;SDS011;51680;49.806;18.774;2023-11-18T01:18:42;7.35;;;4.50;;
41043;SDS011;51680;49.806;18.774;2023-11-18T01:21:45;11.23;;;4.50;;
41043;SDS011;51680;49.806;18.774;2023-11-18T01:24:47;9.52;;;4.70;;
41043;SDS011;51680;49.806;18.774;2023-11-18T01:27:49;8.98;;;5.07;;
41043;SDS011;51680;49.806;18.774;2023-11-18T01:30:52;9.90;;;5.90;;
41043;SDS011;51680;49.806;18.774;2023-11-18T01:33:55;8.70;;;4.50;;
41043;SDS011;51680;49.806;18.774;2023-11-18T01:36:57;6.55;;;3.67;;
41043;SDS011;51680;49.806;18.774;2023-11-18T01:39:59;6.90;;;3.92;;
41043;SDS011;51680;49.806;18.774;2023-11-18T01:43:05;6.47;;;3.88;;
41043;SDS011;51680;49.806;18.774;2023-11-18T01:46:15;7.43;;;3.45;;
41043;SDS011;51680;49.806;18.774;2023-11-18T01:49:20;6.35;;;3.88;;
41043;SDS011;51680;49.806;18.774;2023-11-18T01:52:23;5.50;;;3.65;;
41043;SDS011;51680;49.806;18.774;2023-11-18T01:55:26;7.32;;;4.28;;
41043;SDS011;51680;49.806;18.774;2023-11-18T01:58:28;7.00;;;3.60;;
41043;SDS011;51680;49.806;18.774;2023-11-18T02:01:51;7.15;;;4.35;;
41043;SDS011;51680;49.806;18.774;2023-11-18T02:04:58;6.60;;;4.18;;
41043;SDS011;51680;49.806;18.774;2023-11-18T02:08:01;7.23;;;4.20;;
41043;SDS011;51680;49.806;18.774;2023-11-18T02:11:10;6.15;;;3.50;;
41043;SDS011;51680;49.806;18.774;2023-11-18T02:14:20;6.15;;;3.53;;
41043;SDS011;51680;49.806;18.774;2023-11-18T02:17:24;5.35;;;3.10;;
41043;SDS011;51680;49.806;18.774;2023-11-18T02:20:27;4.60;;;2.83;;
41043;SDS011;51680;49.806;18.774;2023-11-18T02:23:30;4.88;;;2.95;;
41043;SDS011;51680;49.806;18.774;2023-11-18T02:26:34;3.70;;;2.65;;
41043;SDS011;51680;49.806;18.774;2023-11-18T02:29:36;4.60;;;3.00;;
41043;SDS011;51680;49.806;18.774;2023-11-18T02:32:42;5.35;;;3.60;;
41043;SDS011;51680;49.806;18.774;2023-11-18T02:35:51;5.07;;;3.78;;
41043;SDS011;51680;49.806;18.774;2023-11-18T02:38:56;6.25;;;3.15;;
41043;SDS011;51680;49.806;18.774;2023-11-18T02:42:02;5.55;;;3.47;;
41043;SDS011;51680;49.806;18.774;2023-11-18T02:45:08;6.68;;;3.40;;
41043;SDS011;51680;49.806;18.774;2023-11-18T02:48:12;6.32;;;3.97;;
41043;SDS011;51680;49.806;18.774;2023-11-18T02:51:15;4.93;;;3.40;;
41043;SDS011;51680;49.806;18.774;2023-11-18T02:54:17;6.85;;;3.72;;
41043;SDS011;51680;49.806;18.774;2023-11-18T02:57:23;7.75;;;3.72;;
41043;SDS011;51680;49.806;18.774;2023-11-18T03:00:25;5.30;;;3.30;;
41043;SDS011;51680;49.806;18.774;2023-11-18T03:03:28;5.57;;;3.63;;
41043;SDS011;51680;49.806;18.774;2023-11-18T03:06:30;6.70;;;3.97;;
41043;SDS011;51680;49.806;18.774;2023-11-18T03:09:34;5.53;;;3.70;;
41043;SDS011;51680;49.806;18.774;2023-11-18T03:12:40;6.32;;;3.95;;
41043;SDS011;51680;49.806;18.774;2023-11-18T03:18:45;5.40;;;3.65;;
41043;SDS011;51680;49.806;18.774;2023-11-18T03:21:50;8.55;;;4.38;;
41043;SDS011;51680;49.806;18.774;2023-11-18T03:24:53;7.25;;;4.25;;
41043;SDS011;51680;49.806;18.774;2023-11-18T03:27:57;6.38;;;4.30;;
41043;SDS011;51680;49.806;18.774;2023-11-18T03:30:59;5.88;;;4.07;;
41043;SDS011;51680;49.806;18.774;2023-11-18T03:34:02;5.60;;;3.83;;
41043;SDS011;51680;49.806;18.774;2023-11-18T03:37:04;6.70;;;4.30;;
41043;SDS011;51680;49.806;18.774;2023-11-18T03:40:07;7.07;;;4.43;;
41043;SDS011;51680;49.806;18.774;2023-11-18T03:43:11;8.23;;;4.50;;
41043;SDS011;51680;49.806;18.774;2023-11-18T03:46:13;6.50;;;4.30;;
41043;SDS011;51680;49.806;18.774;2023-11-18T03:49:15;6.88;;;4.57;;
41043;SDS011;51680;49.806;18.774;2023-11-18T03:52:18;8.55;;;4.25;;
41043;SDS011;51680;49.806;18.774;2023-11-18T03:55:20;5.55;;;3.65;;
41043;SDS011;51680;49.806;18.774;2023-11-18T03:58:24;4.80;;;3.45;;
41043;SDS011;51680;49.806;18.774;2023-11-18T04:01:26;6.22;;;3.42;;
41043;SDS011;51680;49.806;18.774;2023-11-18T04:04:28;6.00;;;3.30;;
41043;SDS011;51680;49.806;18.774;2023-11-18T04:07:30;4.57;;;2.97;;
41043;SDS011;51680;49.806;18.774;2023-11-18T04:10:32;4.65;;;2.90;;
41043;SDS011;51680;49.806;18.774;2023-11-18T04:13:36;3.70;;;2.40;;
41043;SDS011;51680;49.806;18.774;2023-11-18T04:16:38;4.40;;;2.58;;
41043;SDS011;51680;49.806;18.774;2023-11-18T04:19:40;4.55;;;2.42;;
41043;SDS011;51680;49.806;18.774;2023-11-18T04:22:42;4.15;;;2.70;;
41043;SDS011;51680;49.806;18.774;2023-11-18T04:25:44;4.18;;;2.50;;
41043;SDS011;51680;49.806;18.774;2023-11-18T04:28:48;4.50;;;2.72;;
41043;SDS011;51680;49.806;18.774;2023-11-18T04:31:49;4.25;;;2.47;;
41043;SDS011;51680;49.806;18.774;2023-11-18T04:37:55;3.25;;;1.83;;
41043;SDS011;51680;49.806;18.774;2023-11-18T04:40:58;3.13;;;1.90;;
41043;SDS011;51680;49.806;18.774;2023-11-18T04:44:02;3.58;;;1.90;;
41043;SDS011;51680;49.806;18.774;2023-11-18T04:47:04;3.65;;;2.20;;
41043;SDS011;51680;49.806;18.774;2023-11-18T04:50:07;2.90;;;2.00;;
41043;SDS011;51680;49.806;18.774;2023-11-18T04:53:10;2.80;;;1.90;;
41043;SDS011;51680;49.806;18.774;2023-11-18T04:56:12;2.80;;;1.77;;
41043;SDS011;51680;49.806;18.774;2023-11-18T04:59:18;3.33;;;2.10;;
41043;SDS011;51680;49.806;18.774;2023-11-18T05:02:21;3.78;;;2.00;;
41043;SDS011;51680;49.806;18.774;2023-11-18T05:05:23;4.25;;;2.10;;
41043;SDS011;51680;49.806;18.774;2023-11-18T05:08:25;2.92;;;2.17;;
41043;SDS011;51680;49.806;18.774;2023-11-18T05:11:27;4.25;;;2.17;;
41043;SDS011;51680;49.806;18.774;2023-11-18T05:14:31;4.68;;;2.20;;
41043;SDS011;51680;49.806;18.774;2023-11-18T05:20:36;4.93;;;2.30;;
41043;SDS011;51680;49.806;18.774;2023-11-18T05:23:38;3.63;;;2.13;;
41043;SDS011;51680;49.806;18.774;2023-11-18T05:26:39;4.47;;;2.20;;
41043;SDS011;51680;49.806;18.774;2023-11-18T05:29:43;3.55;;;2.22;;
41043;SDS011;51680;49.806;18.774;2023-11-18T05:32:48;3.25;;;1.90;;
41043;SDS011;51680;49.806;18.774;2023-11-18T05:35:50;3.05;;;1.83;;
41043;SDS011;51680;49.806;18.774;2023-11-18T05:38:54;4.75;;;2.60;;
41043;SDS011;51680;49.806;18.774;2023-11-18T05:41:56;4.97;;;2.90;;
41043;SDS011;51680;49.806;18.774;2023-11-18T05:44:59;5.20;;;2.70;;
41043;SDS011;51680;49.806;18.774;2023-11-18T05:48:02;5.65;;;2.80;;
41043;SDS011;51680;49.806;18.774;2023-11-18T05:51:04;6.45;;;3.10;;
41043;SDS011;51680;49.806;18.774;2023-11-18T05:54:06;4.82;;;3.00;;
41043;SDS011;51680;49.806;18.774;2023-11-18T05:57:08;6.47;;;3.30;;
41043;SDS011;51680;49.806;18.774;2023-11-18T06:00:12;5.57;;;3.00;;
41043;SDS011;51680;49.806;18.774;2023-11-18T06:03:17;5.00;;;3.10;;
41043;SDS011;51680;49.806;18.774;2023-11-18T06:06:20;4.85;;;2.50;;
41043;SDS011;51680;49.806;18.774;2023-11-18T06:09:22;4.50;;;2.50;;
41043;SDS011;51680;49.806;18.774;2023-11-18T06:12:26;4.18;;;2.42;;
41043;SDS011;51680;49.806;18.774;2023-11-18T06:15:29;4.07;;;2.10;;
41043;SDS011;51680;49.806;18.774;2023-11-18T06:18:31;3.47;;;2.22;;
41043;SDS011;51680;49.806;18.774;2023-11-18T06:21:33;4.55;;;2.75;;
41043;SDS011;51680;49.806;18.774;2023-11-18T06:24:35;4.93;;;2.90;;
41043;SDS011;51680;49.806;18.774;2023-11-18T06:27:39;4.68;;;2.72;;
41043;SDS011;51680;49.806;18.774;2023-11-18T06:30:43;4.07;;;2.35;;
41043;SDS011;51680;49.806;18.774;2023-11-18T06:33:45;5.05;;;2.92;;
41043;SDS011;51680;49.806;18.774;2023-11-18T06:36:49;4.05;;;2.92;;
41043;SDS011;51680;49.806;18.774;2023-11-18T06:39:51;5.47;;;3.22;;
41043;SDS011;51680;49.806;18.774;2023-11-18T06:42:53;5.00;;;2.90;;
41043;SDS011;51680;49.806;18.774;2023-11-18T06:46:03;4.90;;;3.05;;
41043;SDS011;51680;49.806;18.774;2023-11-18T06:49:05;4.47;;;3.28;;
41043;SDS011;51680;49.806;18.774;2023-11-18T06:52:11;4.47;;;2.83;;
41043;SDS011;51680;49.806;18.774;2023-11-18T06:55:14;5.30;;;2.58;;
41043;SDS011;51680;49.806;18.774;2023-11-18T06:58:16;4.60;;;2.40;;
41043;SDS011;51680;49.806;18.774;2023-11-18T07:01:19;5.63;;;3.50;;
41043;SDS011;51680;49.806;18.774;2023-11-18T07:04:22;5.78;;;3.75;;
41043;SDS011;51680;49.806;18.774;2023-11-18T07:07:24;4.55;;;3.17;;
41043;SDS011;51680;49.806;18.774;2023-11-18T07:10:26;4.30;;;3.00;;
41043;SDS011;51680;49.806;18.774;2023-11-18T07:13:28;4.50;;;2.97;;
41043;SDS011;51680;49.806;18.774;2023-11-18T07:16:31;5.03;;;3.20;;
41043;SDS011;51680;49.806;18.774;2023-11-18T07:19:33;6.25;;;3.10;;
41043;SDS011;51680;49.806;18.774;2023-11-18T07:22:35;5.70;;;3.45;;
41043;SDS011;51680;49.806;18.774;2023-11-18T07:25:37;7.82;;;5.00;;
41043;SDS011;51680;49.806;18.774;2023-11-18T07:28:39;6.68;;;3.88;;
41043;SDS011;51680;49.806;18.774;2023-11-18T07:31:43;6.25;;;4.25;;
41043;SDS011;51680;49.806;18.774;2023-11-18T07:34:45;7.05;;;4.70;;
41043;SDS011;51680;49.806;18.774;2023-11-18T07:37:47;5.93;;;4.20;;
41043;SDS011;51680;49.806;18.774;2023-11-18T07:40:49;9.32;;;5.82;;
41043;SDS011;51680;49.806;18.774;2023-11-18T07:43:58;29.05;;;14.23;;
41043;SDS011;51680;49.806;18.774;2023-11-18T07:47:02;14.18;;;8.57;;
41043;SDS011;51680;49.806;18.774;2023-11-18T07:50:05;18.23;;;11.75;;
41043;SDS011;51680;49.806;18.774;2023-11-18T07:53:08;16.52;;;10.18;;
41043;SDS011;51680;49.806;18.774;2023-11-18T07:56:10;18.98;;;8.82;;
41043;SDS011;51680;49.806;18.774;2023-11-18T07:59:13;14.77;;;7.60;;
41043;SDS011;51680;49.806;18.774;2023-11-18T08:02:36;12.50;;;6.65;;
41043;SDS011;51680;49.806;18.774;2023-11-18T08:05:38;8.32;;;5.88;;
41043;SDS011;51680;49.806;18.774;2023-11-18T08:08:41;9.35;;;5.95;;
41043;SDS011;51680;49.806;18.774;2023-11-18T08:11:43;9.93;;;5.90;;
41043;SDS011;51680;49.806;18.774;2023-11-18T08:15:04;10.98;;;5.93;;
41043;SDS011;51680;49.806;18.774;2023-11-18T08:18:11;10.43;;;5.68;;
41043;SDS011;51680;49.806;18.774;2023-11-18T08:21:13;11.52;;;6.43;;
41043;SDS011;51680;49.806;18.774;2023-11-18T08:24:15;11.60;;;6.85;;
41043;SDS011;51680;49.806;18.774;2023-11-18T08:27:36;13.10;;;8.15;;
41043;SDS011;51680;49.806;18.774;2023-11-18T08:30:37;12.05;;;6.60;;
41043;SDS011;51680;49.806;18.774;2023-11-18T08:33:42;15.20;;;8.98;;
41043;SDS011;51680;49.806;18.774;2023-11-18T08:36:46;22.30;;;12.05;;
41043;SDS011;51680;49.806;18.774;2023-11-18T08:39:48;16.75;;;9.00;;
41043;SDS011;51680;49.806;18.774;2023-11-18T08:42:51;15.43;;;9.63;;
41043;SDS011;51680;49.806;18.774;2023-11-18T08:45:55;18.08;;;11.15;;
41043;SDS011;51680;49.806;18.774;2023-11-18T08:48:59;17.63;;;11.90;;
41043;SDS011;51680;49.806;18.774;2023-11-18T08:52:29;25.38;;;16.27;;
41043;SDS011;51680;49.806;18.774;2023-11-18T08:55:31;22.25;;;15.60;;
41043;SDS011;51680;49.806;18.774;2023-11-18T08:58:41;18.02;;;11.02;;
41043;SDS011;51680;49.806;18.774;2023-11-18T09:01:45;18.45;;;11.45;;
41043;SDS011;51680;49.806;18.774;2023-11-18T09:04:50;22.13;;;13.48;;
41043;SDS011;51680;49.806;18.774;2023-11-18T09:07:55;23.63;;;14.68;;
41043;SDS011;51680;49.806;18.774;2023-11-18T09:10:58;28.60;;;16.80;;
41043;SDS011;51680;49.806;18.774;2023-11-18T09:14:00;26.63;;;15.15;;
41043;SDS011;51680;49.806;18.774;2023-11-18T09:17:04;57.00;;;24.90;;
41043;SDS011;51680;49.806;18.774;2023-11-18T09:20:09;58.03;;;25.33;;
41043;SDS011;51680;49.806;18.774;2023-11-18T09:23:11;52.00;;;22.33;;
41043;SDS011;51680;49.806;18.774;2023-11-18T09:26:13;29.85;;;15.00;;
41043;SDS011;51680;49.806;18.774;2023-11-18T09:29:17;37.97;;;19.35;;
41043;SDS011;51680;49.806;18.774;2023-11-18T09:32:23;40.80;;;21.77;;
41043;SDS011;51680;49.806;18.774;2023-11-18T09:35:27;46.72;;;21.55;;
41043;SDS011;51680;49.806;18.774;2023-11-18T09:38:31;21.55;;;12.20;;
41043;SDS011;51680;49.806;18.774;2023-11-18T09:41:35;30.98;;;15.75;;
41043;SDS011;51680;49.806;18.774;2023-11-18T09:44:38;19.75;;;11.43;;
41043;SDS011;51680;49.806;18.774;2023-11-18T09:47:58;25.30;;;11.57;;
41043;SDS011;51680;49.806;18.774;2023-11-18T09:51:04;37.30;;;16.13;;
41043;SDS011;51680;49.806;18.774;2023-11-18T09:54:09;31.67;;;12.57;;
41043;SDS011;51680;49.806;18.774;2023-11-18T09:57:19;49.67;;;17.95;;
41043;SDS011;51680;49.806;18.774;2023-11-18T10:00:30;18.65;;;10.10;;
41043;SDS011;51680;49.806;18.774;2023-11-18T10:03:34;17.17;;;9.43;;
41043;SDS011;51680;49.806;18.774;2023-11-18T10:06:37;27.50;;;14.10;;
41043;SDS011;51680;49.806;18.774;2023-11-18T10:12:43;19.10;;;10.32;;
41043;SDS011;51680;49.806;18.774;2023-11-18T10:15:52;17.00;;;9.93;;
41043;SDS011;51680;49.806;18.774;2023-11-18T10:18:54;20.63;;;11.35;;
41043;SDS011;51680;49.806;18.774;2023-11-18T10:22:02;24.35;;;12.02;;
41043;SDS011;51680;49.806;18.774;2023-11-18T10:25:05;19.67;;;11.57;;
41043;SDS011;51680;49.806;18.774;2023-11-18T10:28:07;28.08;;;17.65;;
41043;SDS011;51680;49.806;18.774;2023-11-18T10:31:11;19.95;;;11.07;;
41043;SDS011;51680;49.806;18.774;2023-11-18T10:34:20;20.67;;;12.05;;
41043;SDS011;51680;49.806;18.774;2023-11-18T10:37:24;23.85;;;13.60;;
41043;SDS011;51680;49.806;18.774;2023-11-18T10:40:28;22.80;;;14.15;;
41043;SDS011;51680;49.806;18.774;2023-11-18T10:43:30;31.15;;;18.17;;
41043;SDS011;51680;49.806;18.774;2023-11-18T10:46:36;18.23;;;10.50;;
41043;SDS011;51680;49.806;18.774;2023-11-18T10:49:38;20.75;;;12.15;;
41043;SDS011;51680;49.806;18.774;2023-11-18T10:52:43;24.30;;;14.38;;
41043;SDS011;51680;49.806;18.774;2023-11-18T10:55:47;19.75;;;10.18;;
41043;SDS011;51680;49.806;18.774;2023-11-18T10:58:50;21.75;;;10.95;;
41043;SDS011;51680;49.806;18.774;2023-11-18T11:01:53;21.30;;;11.65;;
41043;SDS011;51680;49.806;18.774;2023-11-18T11:04:58;22.15;;;13.63;;
41043;SDS011;51680;49.806;18.774;2023-11-18T11:08:02;19.52;;;11.63;;
41043;SDS011;51680;49.806;18.774;2023-11-18T11:11:05;18.38;;;10.57;;
41043;SDS011;51680;49.806;18.774;2023-11-18T11:14:10;18.63;;;10.35;;
41043;SDS011;51680;49.806;18.774;2023-11-18T11:17:16;19.38;;;10.82;;
41043;SDS011;51680;49.806;18.774;2023-11-18T11:20:28;22.13;;;12.20;;
41043;SDS011;51680;49.806;18.774;2023-11-18T11:23:42;20.73;;;10.95;;
41043;SDS011;51680;49.806;18.774;2023-11-18T11:26:55;24.55;;;11.60;;
41043;SDS011;51680;49.806;18.774;2023-11-18T11:30:20;22.40;;;10.50;;
41043;SDS011;51680;49.806;18.774;2023-11-18T11:33:25;26.60;;;12.50;;
41043;SDS011;51680;49.806;18.774;2023-11-18T11:36:41;22.13;;;10.65;;
41043;SDS011;51680;49.806;18.774;2023-11-18T11:39:48;40.92;;;19.98;;
41043;SDS011;51680;49.806;18.774;2023-11-18T11:42:54;20.58;;;9.25;;
41043;SDS011;51680;49.806;18.774;2023-11-18T11:45:56;18.65;;;8.98;;
41043;SDS011;51680;49.806;18.774;2023-11-18T11:48:59;23.85;;;10.85;;
41043;SDS011;51680;49.806;18.774;2023-11-18T11:52:09;22.63;;;10.13;;
41043;SDS011;51680;49.806;18.774;2023-11-18T11:55:22;30.00;;;15.40;;
41043;SDS011;51680;49.806;18.774;2023-11-18T11:58:30;37.08;;;18.45;;
41043;SDS011;51680;49.806;18.774;2023-11-18T12:01:35;21.70;;;11.17;;
41043;SDS011;51680;49.806;18.774;2023-11-18T12:04:38;19.65;;;11.00;;
41043;SDS011;51680;49.806;18.774;2023-11-18T12:07:42;21.42;;;11.27;;
41043;SDS011;51680;49.806;18.774;2023-11-18T12:10:54;18.60;;;9.80;;
41043;SDS011;51680;49.806;18.774;2023-11-18T12:14:01;16.20;;;8.50;;
41043;SDS011;51680;49.806;18.774;2023-11-18T12:17:31;15.00;;;7.88;;
41043;SDS011;51680;49.806;18.774;2023-11-18T12:21:13;12.48;;;6.95;;
41043;SDS011;51680;49.806;18.774;2023-11-18T12:28:38;42.03;;;16.77;;
41043;SDS011;51680;49.806;18.774;2023-11-18T12:31:46;22.92;;;18.40;;
41043;SDS011;51680;49.806;18.774;2023-11-18T12:34:49;17.90;;;11.05;;
41043;SDS011;51680;49.806;18.774;2023-11-18T12:38:05;16.20;;;9.32;;
41043;SDS011;51680;49.806;18.774;2023-11-18T12:41:33;22.75;;;15.70;;
41043;SDS011;51680;49.806;18.774;2023-11-18T12:44:43;15.00;;;8.90;;
41043;SDS011;51680;49.806;18.774;2023-11-18T12:48:14;13.18;;;7.32;;
41043;SDS011;51680;49.806;18.774;2023-11-18T12:51:17;9.23;;;5.53;;
41043;SDS011;51680;49.806;18.774;2023-11-18T12:57:26;10.00;;;6.15;;
41043;SDS011;51680;49.806;18.774;2023-11-18T13:00:33;9.93;;;5.93;;
41043;SDS011;51680;49.806;18.774;2023-11-18T13:03:36;12.73;;;7.55;;
41043;SDS011;51680;49.806;18.774;2023-11-18T13:06:38;7.97;;;5.25;;
41043;SDS011;51680;49.806;18.774;2023-11-18T13:09:43;9.00;;;4.88;;
41043;SDS011;51680;49.806;18.774;2023-11-18T13:12:46;27.40;;;17.63;;
41043;SDS011;51680;49.806;18.774;2023-11-18T13:15:51;22.30;;;12.75;;
41043;SDS011;51680;49.806;18.774;2023-11-18T13:18:53;52.92;;;23.90;;
41043;SDS011;51680;49.806;18.774;2023-11-18T13:21:56;18.43;;;11.37;;
41043;SDS011;51680;49.806;18.774;2023-11-18T13:25:00;15.77;;;10.02;;
41043;SDS011;51680;49.806;18.774;2023-11-18T13:28:05;35.45;;;21.83;;
41043;SDS011;51680;49.806;18.774;2023-11-18T13:31:11;61.13;;;35.25;;
41043;SDS011;51680;49.806;18.774;2023-11-18T13:34:17;35.55;;;23.65;;
41043;SDS011;51680;49.806;18.774;2023-11-18T13:37:19;23.08;;;15.38;;
41043;SDS011;51680;49.806;18.774;2023-11-18T13:40:22;16.80;;;9.05;;
41043;SDS011;51680;49.806;18.774;2023-11-18T13:43:24;29.77;;;21.48;;
41043;SDS011;51680;49.806;18.774;2023-11-18T13:46:28;25.95;;;17.20;;
41043;SDS011;51680;49.806;18.774;2023-11-18T13:49:30;25.13;;;15.52;;
41043;SDS011;51680;49.806;18.774;2023-11-18T13:52:32;32.08;;;19.17;;
41043;SDS011;51680;49.806;18.774;2023-11-18T13:55:34;25.02;;;14.05;;
41043;SDS011;51680;49.806;18.774;2023-11-18T13:58:39;22.70;;;14.65;;
41043;SDS011;51680;49.806;18.774;2023-11-18T14:01:43;20.52;;;12.30;;
41043;SDS011;51680;49.806;18.774;2023-11-18T14:04:45;14.55;;;9.43;;
41043;SDS011;51680;49.806;18.774;2023-11-18T14:07:47;15.98;;;10.57;;
41043;SDS011;51680;49.806;18.774;2023-11-18T14:10:49;16.58;;;9.68;;
41043;SDS011;51680;49.806;18.774;2023-11-18T14:13:51;13.93;;;8.07;;
41043;SDS011;51680;49.806;18.774;2023-11-18T14:16:55;15.25;;;9.20;;
41043;SDS011;51680;49.806;18.774;2023-11-18T14:19:58;12.02;;;7.28;;
41043;SDS011;51680;49.806;18.774;2023-11-18T14:23:00;13.13;;;8.00;;
41043;SDS011;51680;49.806;18.774;2023-11-18T14:26:04;16.85;;;10.38;;
41043;SDS011;51680;49.806;18.774;2023-11-18T14:29:08;18.52;;;10.57;;
41043;SDS011;51680;49.806;18.774;2023-11-18T14:32:11;20.92;;;12.95;;
41043;SDS011;51680;49.806;18.774;2023-11-18T14:35:14;14.05;;;9.90;;
41043;SDS011;51680;49.806;18.774;2023-11-18T14:38:17;23.05;;;14.73;;
41043;SDS011;51680;49.806;18.774;2023-11-18T14:41:20;21.85;;;12.65;;
41043;SDS011;51680;49.806;18.774;2023-11-18T14:44:25;21.73;;;10.98;;
41043;SDS011;51680;49.806;18.774;2023-11-18T14:47:31;17.83;;;10.00;;
41043;SDS011;51680;49.806;18.774;2023-11-18T14:50:33;16.75;;;9.00;;
41043;SDS011;51680;49.806;18.774;2023-11-18T14:53:35;16.00;;;9.20;;
41043;SDS011;51680;49.806;18.774;2023-11-18T14:56:37;15.57;;;9.70;;
41043;SDS011;51680;49.806;18.774;2023-11-18T14:59:39;17.63;;;9.93;;
41043;SDS011;51680;49.806;18.774;2023-11-18T15:02:43;17.42;;;9.65;;
41043;SDS011;51680;49.806;18.774;2023-11-18T15:05:46;16.52;;;9.38;;
41043;SDS011;51680;49.806;18.774;2023-11-18T15:08:48;15.90;;;9.13;;
41043;SDS011;51680;49.806;18.774;2023-11-18T15:11:50;16.95;;;10.05;;
41043;SDS011;51680;49.806;18.774;2023-11-18T15:14:53;18.50;;;9.55;;
41043;SDS011;51680;49.806;18.774;2023-11-18T15:17:57;22.40;;;11.27;;
41043;SDS011;51680;49.806;18.774;2023-11-18T15:21:00;13.43;;;8.10;;
41043;SDS011;51680;49.806;18.774;2023-11-18T15:24:02;24.27;;;11.48;;
41043;SDS011;51680;49.806;18.774;2023-11-18T15:27:04;18.63;;;10.35;;
41043;SDS011;51680;49.806;18.774;2023-11-18T15:30:07;16.45;;;8.77;;
41043;SDS011;51680;49.806;18.774;2023-11-18T15:33:12;19.60;;;9.63;;
41043;SDS011;51680;49.806;18.774;2023-11-18T15:36:15;18.00;;;9.15;;
41043;SDS011;51680;49.806;18.774;2023-11-18T15:39:17;29.73;;;14.05;;
41043;SDS011;51680;49.806;18.774;2023-11-18T15:42:20;23.67;;;11.85;;
41043;SDS011;51680;49.806;18.774;2023-11-18T15:45:22;35.45;;;17.30;;
41043;SDS011;51680;49.806;18.774;2023-11-18T15:48:26;51.00;;;21.98;;
41043;SDS011;51680;49.806;18.774;2023-11-18T15:51:29;23.48;;;11.27;;
41043;SDS011;51680;49.806;18.774;2023-11-18T15:54:50;41.75;;;20.20;;
41043;SDS011;51680;49.806;18.774;2023-11-18T15:57:52;30.58;;;13.68;;
41043;SDS011;51680;49.806;18.774;2023-11-18T16:00:54;59.53;;;21.50;;
41043;SDS011;51680;49.806;18.774;2023-11-18T16:03:58;155.63;;;55.10;;
41043;SDS011;51680;49.806;18.774;2023-11-18T16:07:00;46.30;;;24.75;;
41043;SDS011;51680;49.806;18.774;2023-11-18T16:10:02;67.93;;;32.75;;
41043;SDS011;51680;49.806;18.774;2023-11-18T16:13:05;51.47;;;22.17;;
41043;SDS011;51680;49.806;18.774;2023-11-18T16:16:07;30.80;;;14.20;;
41043;SDS011;51680;49.806;18.774;2023-11-18T16:19:10;29.02;;;15.70;;
41043;SDS011;51680;49.806;18.774;2023-11-18T16:22:12;31.63;;;19.23;;
41043;SDS011;51680;49.806;18.774;2023-11-18T16:25:15;18.67;;;11.00;;
41043;SDS011;51680;49.806;18.774;2023-11-18T16:28:20;21.70;;;11.07;;
41043;SDS011;51680;49.806;18.774;2023-11-18T16:31:22;18.83;;;10.57;;
41043;SDS011;51680;49.806;18.774;2023-11-18T16:34:25;102.30;;;38.60;;
41043;SDS011;51680;49.806;18.774;2023-11-18T16:37:27;22.27;;;10.80;;
41043;SDS011;51680;49.806;18.774;2023-11-18T16:40:29;57.20;;;25.00;;
41043;SDS011;51680;49.806;18.774;2023-11-18T16:43:33;22.50;;;9.68;;
41043;SDS011;51680;49.806;18.774;2023-11-18T16:46:36;20.38;;;10.52;;
41043;SDS011;51680;49.806;18.774;2023-11-18T16:49:41;13.05;;;7.07;;
41043;SDS011;51680;49.806;18.774;2023-11-18T16:52:45;24.65;;;13.45;;
41043;SDS011;51680;49.806;18.774;2023-11-18T16:55:48;15.82;;;8.95;;
41043;SDS011;51680;49.806;18.774;2023-11-18T16:58:50;17.63;;;9.27;;
41043;SDS011;51680;49.806;18.774;2023-11-18T17:01:52;19.48;;;10.77;;
41043;SDS011;51680;49.806;18.774;2023-11-18T17:04:55;45.45;;;17.45;;
41043;SDS011;51680;49.806;18.774;2023-11-18T17:07:57;36.53;;;19.67;;
41043;SDS011;51680;49.806;18.774;2023-11-18T17:10:59;110.15;;;46.05;;
41043;SDS011;51680;49.806;18.774;2023-11-18T17:14:20;47.00;;;16.05;;
41043;SDS011;51680;49.806;18.774;2023-11-18T17:17:21;15.15;;;8.00;;
41043;SDS011;51680;49.806;18.774;2023-11-18T17:20:25;14.40;;;7.60;;
41043;SDS011;51680;49.806;18.774;2023-11-18T17:23:27;14.68;;;7.32;;
41043;SDS011;51680;49.806;18.774;2023-11-18T17:26:33;23.17;;;12.10;;
41043;SDS011;51680;49.806;18.774;2023-11-18T17:29:36;23.02;;;13.45;;
41043;SDS011;51680;49.806;18.774;2023-11-18T17:32:38;17.23;;;9.63;;
41043;SDS011;51680;49.806;18.774;2023-11-18T17:35:43;69.95;;;44.80;;
41043;SDS011;51680;49.806;18.774;2023-11-18T17:38:44;39.70;;;26.45;;
41043;SDS011;51680;49.806;18.774;2023-11-18T17:41:47;81.47;;;27.02;;
41043;SDS011;51680;49.806;18.774;2023-11-18T17:44:49;48.67;;;24.85;;
41043;SDS011;51680;49.806;18.774;2023-11-18T17:47:50;116.65;;;54.38;;
41043;SDS011;51680;49.806;18.774;2023-11-18T17:50:54;51.20;;;25.15;;
41043;SDS011;51680;49.806;18.774;2023-11-18T17:53:58;54.35;;;27.48;;
41043;SDS011;51680;49.806;18.774;2023-11-18T17:57:00;93.18;;;37.80;;
41043;SDS011;51680;49.806;18.774;2023-11-18T18:00:04;160.90;;;56.03;;
41043;SDS011;51680;49.806;18.774;2023-11-18T18:03:12;70.95;;;30.35;;
41043;SDS011;51680;49.806;18.774;2023-11-18T18:06:15;56.78;;;26.92;;
41043;SDS011;51680;49.806;18.774;2023-11-18T18:09:17;65.43;;;28.73;;
41043;SDS011;51680;49.806;18.774;2023-11-18T18:12:20;79.85;;;25.23;;
41043;SDS011;51680;49.806;18.774;2023-11-18T18:15:23;37.60;;;15.60;;
41043;SDS011;51680;49.806;18.774;2023-11-18T18:18:26;44.80;;;17.30;;